createdAt,value
2024-02-13T00:02:25.357Z,17.58
2024-02-13T00:07:25.948Z,19.05
2024-02-13T00:12:25.003Z,17.17
2024-02-13T00:17:24.678Z,14.38
2024-02-13T00:22:25.571Z,12.07
2024-02-13T00:27:24.504Z,16.95
2024-02-13T00:32:23.473Z,10.15
2024-02-13T00:37:24.573Z,12.05
2024-02-13T00:42:25.059Z,14.15
2024-02-13T00:47:23.998Z,15.38
2024-02-13T00:52:22.864Z,13.15
2024-02-13T00:57:21.895Z,10.82
2024-02-13T01:02:24.050Z,12.00
2024-02-13T01:07:22.934Z,14.57
2024-02-13T01:12:21.833Z,13.23
2024-02-13T01:17:22.224Z,13.98
2024-02-13T01:22:21.157Z,11.85
2024-02-13T01:27:21.377Z,13.38
2024-02-13T01:32:21.689Z,16.15
2024-02-13T01:37:21.273Z,13.82
2024-02-13T01:42:20.147Z,11.77
2024-02-13T01:47:19.267Z,13.55
2024-02-13T01:52:20.304Z,15.63
2024-02-13T01:57:20.194Z,13.88
2024-02-13T02:02:19.633Z,12.75
2024-02-13T02:07:20.900Z,17.52
2024-02-13T02:12:19.811Z,15.55
2024-02-13T02:17:18.727Z,15.77
2024-02-13T02:22:17.611Z,15.38
2024-02-13T02:27:19.055Z,15.50
2024-02-13T02:32:18.127Z,15.68
2024-02-13T02:37:17.118Z,14.43
2024-02-13T02:42:19.255Z,13.20
2024-02-13T02:47:19.479Z,11.95
2024-02-13T02:52:19.046Z,18.52
2024-02-13T02:57:19.249Z,16.55
2024-02-13T03:02:18.024Z,16.20
2024-02-13T03:07:16.994Z,16.42
2024-02-13T03:12:15.828Z,19.77
2024-02-13T03:17:16.111Z,23.55
2024-02-13T03:22:15.256Z,22.23
2024-02-13T03:27:14.137Z,19.05
2024-02-13T03:32:13.031Z,17.63
2024-02-13T03:37:13.283Z,17.92
2024-02-13T03:42:12.093Z,18.30
2024-02-13T03:47:10.995Z,17.92
2024-02-13T03:52:10.999Z,17.58
2024-02-13T03:57:12.275Z,16.60
2024-02-13T04:02:11.189Z,17.25
2024-02-13T04:07:10.123Z,16.95
2024-02-13T04:12:11.416Z,18.35
2024-02-13T04:17:12.198Z,18.03
2024-02-13T04:22:11.436Z,20.48
2024-02-13T04:27:11.805Z,19.95
2024-02-13T04:32:10.720Z,18.75
2024-02-13T04:37:10.383Z,20.55
2024-02-13T04:42:11.593Z,15.30
2024-02-13T04:47:12.302Z,15.88
2024-02-13T04:52:12.577Z,15.32
2024-02-13T04:57:11.501Z,17.58
2024-02-13T05:02:12.736Z,16.00
2024-02-13T05:07:24.875Z,16.23
2024-02-13T05:12:23.800Z,16.42
2024-02-13T05:17:25.229Z,17.10
2024-02-13T05:22:24.147Z,14.20
2024-02-13T05:27:23.077Z,13.75
2024-02-13T05:32:26.805Z,14.75
2024-02-13T05:37:25.810Z,15.13
2024-02-13T05:42:24.758Z,20.65
2024-02-13T05:47:24.853Z,16.05
2024-02-13T05:52:25.105Z,15.77
2024-02-13T05:57:24.015Z,14.48
2024-02-13T06:02:23.620Z,20.17
2024-02-13T06:07:22.900Z,15.07
2024-02-13T06:12:23.902Z,12.68
2024-02-13T06:17:23.568Z,12.60
2024-02-13T06:22:22.573Z,12.40
2024-02-13T06:27:22.859Z,36.90
2024-02-13T06:32:22.054Z,22.23
2024-02-13T06:37:21.046Z,12.27
2024-02-13T06:42:20.364Z,14.32
2024-02-13T06:47:20.787Z,14.80
2024-02-13T06:52:23.312Z,15.63
2024-02-13T07:08:17.805Z,10.73
2024-02-13T07:13:17.418Z,14.25
2024-02-13T07:18:20.830Z,13.02
2024-02-13T07:23:38.006Z,11.55
2024-02-13T07:28:43.349Z,9.65
2024-02-13T07:33:49.467Z,11.15
2024-02-13T07:38:54.115Z,8.23
2024-02-13T07:43:52.995Z,8.13
2024-02-13T07:49:16.597Z,10.50
2024-02-13T07:54:16.479Z,8.40
2024-02-13T07:59:17.828Z,8.82
2024-02-13T08:04:19.894Z,10.57
2024-02-13T08:09:34.602Z,10.20
2024-02-13T08:14:34.293Z,8.23
2024-02-13T08:19:34.874Z,10.25
2024-02-13T08:24:37.622Z,10.50
2024-02-13T08:29:47.048Z,12.60
2024-02-13T08:35:02.708Z,10.25
2024-02-13T08:40:02.248Z,9.85
2024-02-13T08:45:05.981Z,8.45
2024-02-13T08:50:16.819Z,11.90
2024-02-13T08:55:23.416Z,11.32
2024-02-13T09:00:24.106Z,13.32
2024-02-13T09:05:24.335Z,14.45
2024-02-13T09:10:26.033Z,10.63
2024-02-13T09:15:26.729Z,12.57
2024-02-13T09:20:30.150Z,11.95
2024-02-13T09:26:00.318Z,10.45
2024-02-13T09:31:04.975Z,9.40
2024-02-13T09:41:34.870Z,6.50
2024-02-13T09:46:33.822Z,9.57
2024-02-13T09:51:35.295Z,9.55
2024-02-13T09:56:35.093Z,10.77
2024-02-13T10:01:34.222Z,12.23
2024-02-13T10:06:34.594Z,10.45
2024-02-13T10:11:36.412Z,10.82
2024-02-13T10:16:35.713Z,9.20
2024-02-13T10:21:37.472Z,11.50
2024-02-13T10:26:48.307Z,9.85
2024-02-13T10:31:47.091Z,11.70
2024-02-13T10:36:47.425Z,12.07
2024-02-13T10:42:03.495Z,8.82
2024-02-13T10:47:04.666Z,12.48
2024-02-13T10:52:08.333Z,11.57
2024-02-13T10:57:27.679Z,13.32
2024-02-13T11:02:31.225Z,15.82
2024-02-13T11:07:32.140Z,10.90
2024-02-13T11:12:39.443Z,13.15
2024-02-13T11:17:46.341Z,11.27
2024-02-13T11:22:58.786Z,12.57
2024-02-13T11:28:05.367Z,11.93
2024-02-13T11:33:09.633Z,10.07
2024-02-13T11:38:17.759Z,9.75
2024-02-13T11:43:36.408Z,11.27
2024-02-13T11:48:48.314Z,11.40
2024-02-13T11:53:54.289Z,10.15
2024-02-13T11:59:06.988Z,16.02
2024-02-13T12:04:09.517Z,9.40
2024-02-13T12:09:10.726Z,10.77
2024-02-13T12:14:24.863Z,20.50
2024-02-13T12:19:27.150Z,19.48
2024-02-13T12:24:28.179Z,10.40
2024-02-13T12:29:28.074Z,11.90
2024-02-13T12:34:34.937Z,9.70
2024-02-13T12:39:37.919Z,8.55
2024-02-13T12:44:37.759Z,6.50
2024-02-13T12:49:44.611Z,10.25
2024-02-13T12:54:47.590Z,16.38
2024-02-13T13:00:01.405Z,10.52
2024-02-13T13:05:05.170Z,10.30
2024-02-13T13:15:19.958Z,9.63
2024-02-13T13:20:32.176Z,10.43
2024-02-13T13:25:36.374Z,11.48
2024-02-13T13:30:36.991Z,12.65
2024-02-13T13:35:39.400Z,14.57
2024-02-13T13:40:41.068Z,12.83
2024-02-13T13:45:42.134Z,9.93
2024-02-13T13:50:41.445Z,12.57
2024-02-13T13:55:49.480Z,12.20
2024-02-13T14:00:51.170Z,14.30
2024-02-13T14:05:50.891Z,17.45
2024-02-13T14:10:58.391Z,16.50
2024-02-13T14:16:06.783Z,15.05
2024-02-13T14:21:15.139Z,19.75
2024-02-13T14:26:24.653Z,17.83
2024-02-13T14:31:27.002Z,22.83
2024-02-13T14:36:26.899Z,15.88
2024-02-13T14:41:34.701Z,16.80
2024-02-13T14:46:44.686Z,15.90
2024-02-13T14:51:44.119Z,16.17
2024-02-13T14:56:48.466Z,19.35
2024-02-13T15:01:51.277Z,19.55
2024-02-13T15:06:50.867Z,19.00
2024-02-13T15:12:28.113Z,18.80
2024-02-13T15:17:27.112Z,18.20
2024-02-13T15:22:32.500Z,16.77
2024-02-13T15:27:44.406Z,13.27
2024-02-13T15:32:45.816Z,14.23
2024-02-13T15:38:04.553Z,12.70
2024-02-13T15:43:22.291Z,11.23
2024-02-13T15:48:22.052Z,12.00
2024-02-13T15:53:22.042Z,11.95
2024-02-13T15:58:22.824Z,11.35
2024-02-13T16:03:21.889Z,11.82
2024-02-13T16:08:22.342Z,10.45
2024-02-13T16:13:25.628Z,16.33
2024-02-13T16:18:25.572Z,17.63
2024-02-13T16:23:24.647Z,18.30
2024-02-13T16:28:25.839Z,11.85
2024-02-13T16:33:25.049Z,13.27
2024-02-13T16:38:24.347Z,12.00
2024-02-13T16:43:27.852Z,11.80
2024-02-13T16:48:33.043Z,10.60
2024-02-13T16:53:35.698Z,10.80
2024-02-13T16:58:36.102Z,13.43
2024-02-13T17:03:35.254Z,11.07
2024-02-13T17:08:36.010Z,11.73
2024-02-13T17:13:36.540Z,14.05
2024-02-13T17:18:35.803Z,12.98
2024-02-13T17:23:37.090Z,10.30
2024-02-13T17:28:39.791Z,11.10
2024-02-13T17:33:38.876Z,14.13
2024-02-13T17:38:40.658Z,13.15
2024-02-13T17:43:41.102Z,11.13
2024-02-13T17:48:40.467Z,16.88
2024-02-13T17:53:39.388Z,30.17
2024-02-13T17:58:38.855Z,11.43
2024-02-13T18:03:39.566Z,12.57
2024-02-13T18:08:38.573Z,12.77
2024-02-13T18:13:37.696Z,12.13
2024-02-13T18:18:36.714Z,14.32
2024-02-13T18:23:37.068Z,14.52
2024-02-13T18:28:35.943Z,13.52
2024-02-13T18:33:35.232Z,12.57
2024-02-13T18:38:34.538Z,13.30
2024-02-13T18:43:38.911Z,14.60
2024-02-13T18:48:39.021Z,17.98
2024-02-13T18:53:37.958Z,17.27
2024-02-13T18:58:40.080Z,13.77
2024-02-13T19:03:39.236Z,17.98
2024-02-13T19:08:38.233Z,16.67
2024-02-13T19:13:38.612Z,19.20
2024-02-13T19:18:39.703Z,16.23
2024-02-13T19:23:38.670Z,16.25
2024-02-13T19:28:45.476Z,14.55
2024-02-13T19:33:44.660Z,15.48
2024-02-13T19:38:45.722Z,13.43
2024-02-13T19:43:46.047Z,16.33
2024-02-13T19:48:47.349Z,12.27
2024-02-13T19:53:47.626Z,14.98
2024-02-13T19:58:47.889Z,11.48
2024-02-13T20:03:46.796Z,14.15
2024-02-13T20:08:45.822Z,11.40
2024-02-13T20:13:45.285Z,8.88
2024-02-13T20:18:45.952Z,15.27
2024-02-13T20:23:47.112Z,11.65
2024-02-13T20:28:46.109Z,9.02
2024-02-13T20:33:46.412Z,9.15
2024-02-13T20:38:45.662Z,10.30
2024-02-13T20:43:45.195Z,11.57
2024-02-13T20:48:45.948Z,18.77
2024-02-13T20:53:45.437Z,19.55
2024-02-13T20:58:46.367Z,15.00
2024-02-13T21:03:47.615Z,8.75
2024-02-13T21:08:46.513Z,9.82
2024-02-13T21:13:46.391Z,8.68
2024-02-13T21:18:47.137Z,11.55
2024-02-13T21:23:55.158Z,10.93
2024-02-13T21:28:54.943Z,8.70
2024-02-13T21:33:55.616Z,9.32
2024-02-13T21:38:54.669Z,7.40
2024-02-13T21:43:53.677Z,10.18
2024-02-13T21:48:52.759Z,9.57
2024-02-13T21:53:53.150Z,11.45
2024-02-13T21:58:52.326Z,12.45
2024-02-13T22:03:51.158Z,10.25
2024-02-13T22:08:50.178Z,10.23
2024-02-13T22:13:50.646Z,8.50
2024-02-13T22:18:49.615Z,6.75
2024-02-13T22:23:48.485Z,7.90
2024-02-13T22:28:47.351Z,6.35
2024-02-13T22:33:49.602Z,5.55
2024-02-13T22:38:48.602Z,4.23
2024-02-13T22:43:47.687Z,3.70
2024-02-13T22:48:47.978Z,6.80
2024-02-13T22:53:47.068Z,5.30
2024-02-13T22:58:46.059Z,6.25
2024-02-13T23:03:50.995Z,5.78
2024-02-13T23:08:50.095Z,4.50
2024-02-13T23:13:51.255Z,6.20
2024-02-13T23:18:55.577Z,7.82
2024-02-13T23:23:55.007Z,4.85
2024-02-13T23:28:57.118Z,5.47
2024-02-13T23:33:58.190Z,6.40
2024-02-13T23:38:57.541Z,4.55
2024-02-13T23:43:56.358Z,5.28
2024-02-13T23:48:55.827Z,4.82
2024-02-13T23:53:56.422Z,5.30
2024-02-13T23:58:55.244Z,4.75
